Time;durP1;ratioP1;P1;durP2;ratioP2;P2;SDS_P1;SDS_P2;PMS_P1;PMS_P2;Temp;Humidity;BMP_temperature;BMP_pressure;BME280_temperature;BME280_humidity;BME280_pressure;Samples;Min_cycle;Max_cycle;Signal;HPM_P1;HPM_P2
2024/01/07 00:02:11;;;;;;;24.93;19.57;;;;;;;9.79;72.11;98483.91;4390283;32;20177;-71
2024/01/07 00:04:47;;;;;;;30.25;23.80;;;;;;;9.84;71.94;98486.16;4390156;32;20253;-71
2024/01/07 00:07:16;;;;;;;31.60;24.05;;;;;;;9.71;72.38;98491.69;4390602;32;20149;-71
2024/01/07 00:09:48;;;;;;;27.02;22.08;;;;;;;9.44;73.23;98489.66;4390174;32;20816;-71
2024/01/07 00:12:18;;;;;;;26.90;20.15;;;;;;;9.45;73.53;98488.66;4390118;32;20180;-71
2024/01/07 00:14:47;;;;;;;27.95;18.90;;;;;;;9.64;72.58;98487.06;4390018;32;20486;-71
2024/01/07 00:17:18;;;;;;;25.15;19.75;;;;;;;9.56;72.80;98478.00;4390149;32;20165;-71
2024/01/07 00:19:54;;;;;;;24.67;19.98;;;;;;;9.83;72.02;98479.19;4390251;32;20172;-71
2024/01/07 00:22:23;;;;;;;24.17;18.30;;;;;;;9.53;72.68;98480.91;4390355;32;20168;-71
2024/01/07 00:24:52;;;;;;;24.45;18.75;;;;;;;9.57;72.58;98474.38;4390061;32;20188;-71
2024/01/07 00:27:21;;;;;;;28.48;20.62;;;;;;;9.56;72.43;98480.66;4390111;32;20177;-71
2024/01/07 00:29:51;;;;;;;24.42;17.98;;;;;;;9.54;72.63;98471.16;4390061;32;20157;-71
2024/01/07 00:32:22;;;;;;;23.17;19.23;;;;;;;9.51;72.64;98479.38;4389874;32;20165;-71
2024/01/07 00:34:51;;;;;;;24.45;17.27;;;;;;;9.67;72.29;98468.28;4389857;32;20157;-71
2024/01/07 00:37:24;;;;;;;23.23;18.45;;;;;;;9.27;73.34;98477.91;4390201;32;20158;-71
2024/01/07 00:39:53;;;;;;;21.77;16.67;;;;;;;9.39;73.12;98475.16;4389915;32;20180;-71
2024/01/07 00:42:22;;;;;;;22.65;16.77;;;;;;;9.61;72.34;98470.50;4390041;32;20161;-71
2024/01/07 00:44:51;;;;;;;21.33;17.17;;;;;;;9.65;72.23;98471.06;4390018;32;20173;-71
2024/01/07 00:47:22;;;;;;;25.65;17.83;;;;;;;9.56;72.11;98467.41;4389832;32;20165;-71
2024/01/07 00:49:50;;;;;;;23.15;17.15;;;;;;;9.46;72.47;98471.81;4389870;32;20160;-71
2024/01/07 00:52:21;;;;;;;22.30;16.83;;;;;;;9.76;71.53;98472.75;4389964;32;20161;-71
2024/01/07 00:54:50;;;;;;;21.25;15.57;;;;;;;9.61;71.93;98475.78;4389584;32;20188;-71
2024/01/07 00:57:19;;;;;;;23.15;16.92;;;;;;;9.52;72.04;98476.59;4389684;32;20166;-71
2024/01/07 00:59:51;;;;;;;18.05;14.02;;;;;;;9.27;72.85;98482.34;4389924;32;20188;-71
2024/01/07 01:02:22;;;;;;;21.05;15.85;;;;;;;9.51;72.24;98477.56;4389582;32;20521;-71
2024/01/07 01:04:50;;;;;;;18.30;14.85;;;;;;;9.09;73.84;98479.47;4389478;32;20180;-71
2024/01/07 01:07:20;;;;;;;18.48;14.65;;;;;;;9.40;72.52;98482.97;4389801;32;20149;-71
2024/01/07 01:09:49;;;;;;;19.45;15.35;;;;;;;9.30;73.12;98488.19;4389499;32;20165;-71
2024/01/07 01:12:19;;;;;;;19.55;15.23;;;;;;;9.28;72.93;98490.13;4391048;32;20176;-71
2024/01/07 01:14:48;;;;;;;19.60;14.75;;;;;;;9.60;71.83;98483.84;4391299;32;20204;-71
2024/01/07 01:17:25;;;;;;;19.12;14.63;;;;;;;9.57;71.72;98489.41;4391391;32;20505;-71
2024/01/07 01:19:54;;;;;;;18.92;14.32;;;;;;;9.49;72.08;98487.44;4391448;32;20187;-71
2024/01/07 01:22:23;;;;;;;16.25;13.30;;;;;;;9.58;71.80;98486.66;4391578;32;20146;-71
2024/01/07 01:24:53;;;;;;;14.40;12.55;;;;;;;9.68;71.42;98483.19;4391582;32;20252;-71
2024/01/07 01:27:22;;;;;;;16.65;13.07;;;;;;;9.72;71.30;98480.12;4391231;32;20149;-71
2024/01/07 01:29:52;;;;;;;13.98;12.10;;;;;;;9.54;71.81;98482.59;4391371;32;20164;-71
2024/01/07 01:32:21;;;;;;;14.38;12.85;;;;;;;9.96;70.29;98479.75;4391526;32;20529;-71
2024/01/07 01:34:51;;;;;;;17.00;12.68;;;;;;;9.70;70.99;98478.59;4391218;32;20169;-71
2024/01/07 01:37:21;;;;;;;14.15;12.45;;;;;;;9.85;70.56;98475.41;4391502;32;20166;-71
2024/01/07 01:39:50;;;;;;;15.73;12.77;;;;;;;9.47;71.82;98472.69;4391251;32;20160;-71
2024/01/07 01:42:19;;;;;;;14.77;12.95;;;;;;;9.55;71.30;98478.97;4391127;32;20173;-71
2024/01/07 01:44:48;;;;;;;13.77;12.02;;;;;;;9.67;71.15;98477.06;4391195;32;20208;-71
2024/01/07 01:47:17;;;;;;;15.30;12.98;;;;;;;9.82;70.63;98472.22;4391251;32;20451;-71
2024/01/07 01:49:47;;;;;;;18.45;13.02;;;;;;;9.91;70.54;98475.88;4391205;32;20180;-71
2024/01/07 01:52:17;;;;;;;16.77;13.23;;;;;;;9.94;70.43;98478.22;4391410;32;20153;-71
2024/01/07 01:54:47;;;;;;;16.35;11.70;;;;;;;10.01;70.29;98468.75;4391330;32;20434;-71
2024/01/07 01:57:20;;;;;;;13.52;12.07;;;;;;;9.98;70.22;98466.41;4391137;32;20184;-72
2024/01/07 01:59:49;;;;;;;12.20;10.55;;;;;;;9.81;70.51;98470.53;4391142;32;20172;-72
2024/01/07 02:02:19;;;;;;;16.85;12.25;;;;;;;9.94;70.24;98473.78;4391080;32;20185;-72
2024/01/07 02:04:48;;;;;;;15.80;12.43;;;;;;;10.03;69.96;98462.37;4391003;32;20166;-72
2024/01/07 02:07:18;;;;;;;13.80;11.50;;;;;;;10.18;69.37;98456.69;4391643;32;20149;-71
2024/01/07 02:09:48;;;;;;;12.25;10.27;;;;;;;10.03;69.80;98453.59;4391083;32;20816;-71
2024/01/07 02:12:17;;;;;;;14.25;10.70;;;;;;;9.95;70.01;98454.28;4390971;32;20161;-73
2024/01/07 02:14:46;;;;;;;13.40;10.85;;;;;;;10.01;69.86;98451.06;4391294;32;20181;-71
2024/01/07 02:17:16;;;;;;;13.57;11.12;;;;;;;10.06;69.74;98443.56;4390975;32;20172;-72
2024/01/07 02:19:45;;;;;;;14.60;11.75;;;;;;;9.98;69.96;98446.06;4390988;32;20184;-71
2024/01/07 02:22:15;;;;;;;12.68;11.12;;;;;;;10.09;69.50;98451.22;4390892;32;20744;-71
2024/01/07 02:24:45;;;;;;;12.52;11.25;;;;;;;9.96;69.97;98442.72;4390958;32;20165;-71
2024/01/07 02:27:14;;;;;;;14.35;11.73;;;;;;;10.10;69.69;98444.97;4390858;32;20663;-71
2024/01/07 02:29:44;;;;;;;13.88;11.30;;;;;;;10.00;69.81;98444.09;4390953;32;20169;-71
2024/01/07 02:32:13;;;;;;;15.20;12.63;;;;;;;10.07;69.55;98445.22;4390889;32;20450;-71
2024/01/07 02:34:42;;;;;;;15.13;11.85;;;;;;;10.14;69.48;98448.16;4390802;32;20169;-71
2024/01/07 02:37:12;;;;;;;16.95;11.75;;;;;;;10.36;68.36;98446.25;4391082;32;20153;-71
2024/01/07 02:39:41;;;;;;;14.32;11.68;;;;;;;10.42;67.92;98443.03;4390778;32;20176;-71
2024/01/07 02:42:17;;;;;;;14.00;11.15;;;;;;;10.39;67.96;98436.22;4390609;32;20190;-71
2024/01/07 02:44:46;;;;;;;12.95;11.48;;;;;;;9.94;69.49;98438.53;4390752;32;20196;-71
2024/01/07 02:47:16;;;;;;;14.75;11.75;;;;;;;10.25;68.79;98432.16;4390844;32;20154;-71
2024/01/07 02:49:45;;;;;;;13.48;11.80;;;;;;;10.31;68.19;98436.06;4390812;32;20177;-71
2024/01/07 02:52:14;;;;;;;12.98;11.48;;;;;;;10.13;69.01;98429.75;4391046;32;20133;-71
2024/01/07 02:54:43;;;;;;;12.32;11.00;;;;;;;10.00;69.51;98422.94;4390946;32;20149;-72
2024/01/07 02:57:12;;;;;;;12.68;11.35;;;;;;;9.98;69.75;98424.06;4390647;32;20172;-71
2024/01/07 02:59:42;;;;;;;15.07;11.15;;;;;;;9.72;70.64;98419.28;4389528;32;20448;-71
2024/01/07 03:02:18;;;;;;;11.02;9.90;;;;;;;9.87;70.24;98426.84;4390629;32;20546;-72
2024/01/07 03:04:47;;;;;;;12.15;10.15;;;;;;;10.06;69.60;98417.09;4390566;32;20205;-71
2024/01/07 03:07:17;;;;;;;11.18;9.98;;;;;;;10.12;69.14;98420.16;4391285;32;20169;-72
2024/01/07 03:09:46;;;;;;;14.68;10.75;;;;;;;9.82;70.31;98419.31;4390661;32;20460;-71
2024/01/07 03:12:16;;;;;;;12.55;10.05;;;;;;;10.04;69.64;98413.75;4390837;32;20490;-72
2024/01/07 03:14:47;;;;;;;8.95;7.82;;;;;;;10.31;68.42;98407.78;4390638;32;20173;-71
2024/01/07 03:17:17;;;;;;;9.48;8.13;;;;;;;9.84;70.08;98412.06;4390592;32;20149;-71
2024/01/07 03:19:46;;;;;;;12.75;8.60;;;;;;;9.93;69.81;98416.53;4390582;32;20157;-71
2024/01/07 03:22:15;;;;;;;9.50;7.72;;;;;;;9.75;70.37;98410.25;4390816;32;20173;-72
2024/01/07 03:24:45;;;;;;;9.05;7.00;;;;;;;9.83;70.31;98413.88;4390621;32;20171;-71
2024/01/07 03:27:14;;;;;;;7.28;6.05;;;;;;;9.77;70.43;98410.94;4390496;32;20169;-72
2024/01/07 03:29:43;;;;;;;6.55;5.50;;;;;;;9.94;70.05;98412.94;4390427;32;20520;-72
2024/01/07 03:32:13;;;;;;;8.15;5.78;;;;;;;9.95;70.01;98414.59;4390522;32;20158;-71
2024/01/07 03:34:43;;;;;;;6.53;5.55;;;;;;;9.97;70.06;98407.34;4389382;32;20185;-72
2024/01/07 03:37:12;;;;;;;6.18;4.55;;;;;;;10.07;69.76;98413.47;4390971;32;20721;-73
2024/01/07 03:39:41;;;;;;;6.60;5.00;;;;;;;10.18;69.42;98409.03;4390459;32;20176;-72
2024/01/07 03:42:11;;;;;;;7.60;4.82;;;;;;;9.93;70.07;98407.75;4390420;32;20160;-72
2024/01/07 03:44:41;;;;;;;9.80;5.70;;;;;;;10.01;69.97;98413.19;4390411;32;20714;-71
2024/01/07 03:47:10;;;;;;;5.87;5.12;;;;;;;10.04;69.87;98408.47;4390398;32;20157;-71
2024/01/07 03:49:41;;;;;;;5.40;4.82;;;;;;;9.91;70.21;98410.56;4390344;32;20549;-71
2024/01/07 03:52:10;;;;;;;6.93;5.20;;;;;;;10.23;69.24;98412.09;4390649;32;20157;-71
2024/01/07 03:54:40;;;;;;;5.15;4.65;;;;;;;10.16;69.06;98408.31;4390298;32;20170;-71
2024/01/07 03:57:09;;;;;;;4.68;4.18;;;;;;;9.85;70.16;98414.56;4390280;32;20172;-71
2024/01/07 03:59:39;;;;;;;6.40;5.00;;;;;;;10.20;69.24;98422.94;4390313;32;20176;-72
2024/01/07 04:02:08;;;;;;;5.50;4.93;;;;;;;10.14;69.51;98416.41;4390265;32;20145;-71
2024/01/07 04:04:37;;;;;;;7.35;5.57;;;;;;;9.98;69.94;98416.13;4390216;32;20165;-71
2024/01/07 04:07:08;;;;;;;7.90;5.87;;;;;;;9.92;70.17;98414.88;4390741;32;20161;-71
2024/01/07 04:09:37;;;;;;;5.50;4.85;;;;;;;9.98;69.86;98426.72;4390226;32;20149;-71
2024/01/07 04:12:12;;;;;;;6.40;5.80;;;;;;;9.77;70.71;98418.88;4390160;32;20864;-72
2024/01/07 04:14:44;;;;;;;5.72;5.00;;;;;;;9.71;70.91;98422.09;4390098;32;20169;-71
2024/01/07 04:19:47;;;;;;;6.15;5.05;;;;;;;9.75;71.08;98419.03;4390182;32;20145;-71
2024/01/07 04:22:18;;;;;;;5.35;4.65;;;;;;;9.69;71.06;98429.31;4390369;32;20130;-71
2024/01/07 04:24:47;;;;;;;7.15;5.97;;;;;;;9.38;72.16;98425.91;4390059;32;20165;-71
2024/01/07 04:27:16;;;;;;;7.15;5.78;;;;;;;9.69;71.30;98426.66;4390061;32;20161;-71
2024/01/07 04:29:45;;;;;;;6.22;5.37;;;;;;;9.66;71.55;98425.16;4390018;32;20153;-71
2024/01/07 04:32:24;;;;;;;6.68;5.37;;;;;;;9.83;70.95;98426.28;4389984;32;20173;-71
2024/01/07 04:34:53;;;;;;;7.20;6.07;;;;;;;9.89;70.87;98424.88;4389973;32;20161;-71
2024/01/07 04:37:24;;;;;;;6.93;5.87;;;;;;;9.96;70.52;98421.53;4390205;32;20188;-72
2024/01/07 04:39:52;;;;;;;6.50;5.90;;;;;;;9.93;70.63;98423.63;4390186;32;20552;-72
2024/01/07 04:42:22;;;;;;;5.30;4.80;;;;;;;10.11;70.17;98427.28;4389869;32;20620;-71
2024/01/07 04:44:51;;;;;;;5.68;5.07;;;;;;;10.17;69.70;98429.34;4389688;32;20173;-71
2024/01/07 04:47:28;;;;;;;6.05;4.72;;;;;;;9.91;70.37;98423.78;4389834;32;20146;-72
2024/01/07 04:49:58;;;;;;;6.87;4.25;;;;;;;9.71;70.93;98427.38;4389757;32;20169;-71
2024/01/07 04:52:34;;;;;;;4.55;3.92;;;;;;;9.94;70.52;98425.28;4389684;32;20198;-71
2024/01/07 04:55:04;;;;;;;5.90;5.12;;;;;;;10.05;70.17;98428.66;4390117;32;20152;-71
2024/01/07 04:57:33;;;;;;;5.12;4.62;;;;;;;9.86;70.66;98420.72;4389560;32;20181;-72
2024/01/07 05:00:07;;;;;;;5.57;4.15;;;;;;;10.02;70.30;98425.47;4389721;32;20145;-71
2024/01/07 05:02:37;;;;;;;5.07;4.10;;;;;;;10.00;70.37;98420.28;4389556;32;20161;-71
2024/01/07 05:05:08;;;;;;;4.50;3.97;;;;;;;10.05;70.13;98425.16;4389517;32;20181;-71
2024/01/07 05:07:40;;;;;;;5.63;4.33;;;;;;;10.00;70.35;98422.09;4389548;32;20173;-71
2024/01/07 05:10:09;;;;;;;6.78;5.03;;;;;;;9.94;70.59;98422.66;4389852;32;20229;-71
2024/01/07 05:12:38;;;;;;;5.45;4.28;;;;;;;10.21;69.71;98417.50;4389449;32;20158;-71
2024/01/07 05:15:09;;;;;;;6.00;5.03;;;;;;;10.17;69.72;98417.91;4389439;32;20169;-71
2024/01/07 05:17:38;;;;;;;4.30;3.90;;;;;;;10.05;69.93;98420.72;4389277;32;20161;-71
2024/01/07 05:20:08;;;;;;;7.18;4.10;;;;;;;10.04;70.08;98416.41;4389370;32;20146;-71
2024/01/07 05:22:39;;;;;;;4.25;3.67;;;;;;;9.92;70.52;98422.81;4389306;32;20172;-71
2024/01/07 05:25:09;;;;;;;5.87;4.53;;;;;;;9.92;70.53;98414.88;4389649;32;20539;-72
2024/01/07 05:27:38;;;;;;;5.40;4.40;;;;;;;10.10;70.12;98422.97;4389220;32;20157;-71
2024/01/07 05:30:08;;;;;;;5.43;4.57;;;;;;;10.16;69.65;98417.09;4389226;32;20177;-71
2024/01/07 05:32:38;;;;;;;5.75;3.90;;;;;;;10.15;69.84;98425.19;4389045;32;20169;-71
2024/01/07 05:35:07;;;;;;;4.35;3.72;;;;;;;10.14;69.70;98415.59;4385723;32;20163;-71
2024/01/07 05:37:36;;;;;;;4.35;3.85;;;;;;;10.33;68.83;98419.09;4374281;32;20462;-71
2024/01/07 05:40:08;;;;;;;4.03;3.50;;;;;;;10.17;69.44;98425.88;4374447;32;20545;-71
2024/01/07 05:42:38;;;;;;;;;;;;;;;10.26;69.34;98415.31;4374338;32;20173;-71
2024/01/07 05:45:07;;;;;;;4.43;3.33;;;;;;;10.13;69.85;98413.88;4374118;32;20049;-71
2024/01/07 05:47:40;;;;;;;6.05;3.65;;;;;;;10.17;69.64;98420.56;4373928;32;20150;-71
2024/01/07 05:50:10;;;;;;;4.25;3.80;;;;;;;10.07;70.16;98421.41;4373943;32;20180;-71
2024/01/07 05:52:39;;;;;;;6.93;5.30;;;;;;;10.14;69.83;98421.72;4373794;32;20161;-71
2024/01/07 05:55:10;;;;;;;6.10;5.30;;;;;;;10.22;69.55;98415.72;4374247;32;20518;-71
2024/01/07 05:57:39;;;;;;;5.55;4.25;;;;;;;10.35;69.03;98424.22;4375124;32;20161;-71
2024/01/07 06:00:10;;;;;;;5.07;4.43;;;;;;;10.26;69.16;98423.25;4376371;32;20747;-72
2024/01/07 06:02:41;;;;;;;8.37;4.47;;;;;;;10.09;69.80;98423.91;4376002;32;20153;-71
2024/01/07 06:05:11;;;;;;;5.43;4.35;;;;;;;10.18;69.54;98422.25;4375963;32;20173;-71
2024/01/07 06:07:40;;;;;;;3.97;3.58;;;;;;;10.22;69.50;98421.00;4375995;32;20181;-71
2024/01/07 06:10:11;;;;;;;4.55;3.53;;;;;;;10.18;69.52;98425.75;4376309;32;20532;-72
2024/01/07 06:12:41;;;;;;;4.95;3.53;;;;;;;10.40;68.83;98421.16;4375920;32;20180;-71
2024/01/07 06:15:10;;;;;;;6.45;3.58;;;;;;;10.18;69.69;98425.75;4376099;32;20181;-71
2024/01/07 06:17:39;;;;;;;5.40;4.43;;;;;;;10.06;69.99;98432.97;4375855;32;20157;-71
2024/01/07 06:20:09;;;;;;;6.30;3.97;;;;;;;10.25;69.55;98436.63;4379732;32;20165;-71
2024/01/07 06:22:39;;;;;;;7.30;5.15;;;;;;;10.27;69.39;98427.56;4390827;32;20133;-71
2024/01/07 06:25:09;;;;;;;5.60;4.22;;;;;;;10.29;69.38;98432.72;4391189;32;20165;-71
2024/01/07 06:27:41;;;;;;;3.95;3.30;;;;;;;10.18;69.66;98431.03;4389659;32;20173;-71
2024/01/07 06:30:13;;;;;;;3.70;3.17;;;;;;;10.05;70.00;98436.59;4390677;32;20170;-72
2024/01/07 06:32:45;;;;;;;4.87;4.40;;;;;;;10.25;69.48;98437.44;4390756;32;20145;-71
2024/01/07 06:35:14;;;;;;;8.20;5.97;;;;;;;10.04;70.06;98436.72;4390785;32;20154;-71
2024/01/07 06:37:44;;;;;;;16.17;11.98;;;;;;;10.12;69.77;98446.63;4390702;32;20153;-72
2024/01/07 06:40:13;;;;;;;11.68;9.13;;;;;;;10.22;69.47;98443.03;4391008;32;20177;-72
2024/01/07 06:42:44;;;;;;;7.10;5.57;;;;;;;10.35;69.16;98448.06;4390719;32;20161;-72
2024/01/07 06:45:14;;;;;;;5.40;4.32;;;;;;;10.31;69.41;98444.00;4390901;32;20173;-71
2024/01/07 06:47:46;;;;;;;5.05;4.40;;;;;;;10.30;69.32;98447.66;4389331;32;20173;-72
2024/01/07 06:50:16;;;;;;;7.65;5.78;;;;;;;10.40;69.02;98453.75;4390740;32;20157;-72
2024/01/07 06:52:45;;;;;;;7.15;5.90;;;;;;;10.13;69.72;98459.72;4390060;32;20157;-71
2024/01/07 06:55:14;;;;;;;8.32;6.75;;;;;;;10.30;69.30;98455.59;4390203;32;20184;-72
2024/01/07 06:57:45;;;;;;;7.90;6.97;;;;;;;10.17;69.88;98454.97;4390579;32;20509;-72
2024/01/07 07:00:15;;;;;;;12.95;8.52;;;;;;;10.17;69.79;98457.62;4390525;32;20627;-71
2024/01/07 07:02:47;;;;;;;10.30;7.95;;;;;;;10.10;69.93;98460.00;4390580;32;20165;-72
2024/01/07 07:05:16;;;;;;;10.52;8.35;;;;;;;10.26;69.45;98460.31;4390574;32;20200;-72
2024/01/07 07:07:46;;;;;;;11.68;7.80;;;;;;;10.29;69.35;98469.78;4390616;32;20525;-72
2024/01/07 07:10:16;;;;;;;9.30;7.80;;;;;;;10.23;69.30;98465.03;4390990;32;20165;-72
2024/01/07 07:12:46;;;;;;;9.73;8.15;;;;;;;10.22;69.65;98466.84;4390543;32;20525;-72
2024/01/07 07:15:16;;;;;;;10.75;7.32;;;;;;;10.02;70.06;98465.16;4390642;32;20153;-72
2024/01/07 07:17:49;;;;;;;10.23;7.53;;;;;;;10.13;69.87;98465.00;4390540;32;20153;-72
2024/01/07 07:20:19;;;;;;;10.32;7.28;;;;;;;10.12;70.10;98470.44;4390468;32;20177;-72
2024/01/07 07:22:48;;;;;;;10.68;6.95;;;;;;;10.14;70.12;98471.16;4390664;32;20149;-72
2024/01/07 07:25:18;;;;;;;9.20;7.47;;;;;;;10.09;70.09;98469.72;4390854;32;20165;-72
2024/01/07 07:27:51;;;;;;;10.00;8.25;;;;;;;10.17;69.82;98471.69;4390521;32;20173;-72
2024/01/07 07:30:21;;;;;;;12.20;7.40;;;;;;;10.19;69.66;98469.75;4390472;32;20164;-72
2024/01/07 07:32:52;;;;;;;10.32;7.03;;;;;;;10.19;69.61;98467.13;4390440;32;20153;-72
2024/01/07 07:35:21;;;;;;;8.73;7.82;;;;;;;10.18;69.65;98469.91;4390395;32;20176;-72
2024/01/07 07:37:50;;;;;;;12.40;9.07;;;;;;;10.18;69.67;98476.03;4390351;32;20619;-72
2024/01/07 07:40:19;;;;;;;10.65;8.02;;;;;;;9.98;70.44;98477.81;4390659;32;20142;-72
2024/01/07 07:42:51;;;;;;;10.63;7.87;;;;;;;10.11;70.10;98474.91;4390336;32;20148;-72
2024/01/07 07:45:20;;;;;;;11.87;8.60;;;;;;;9.90;70.58;98482.97;4390409;32;20461;-72
2024/01/07 07:47:53;;;;;;;9.68;8.20;;;;;;;9.99;70.42;98483.94;4390285;32;20242;-72
2024/01/07 07:50:22;;;;;;;10.15;8.60;;;;;;;10.16;69.85;98485.91;4390287;32;20173;-72
2024/01/07 07:52:51;;;;;;;10.27;8.43;;;;;;;10.08;70.05;98486.59;4390336;32;20153;-72
2024/01/07 07:55:20;;;;;;;12.27;9.20;;;;;;;9.85;70.76;98493.94;4390631;32;20181;-72
2024/01/07 07:57:51;;;;;;;11.20;8.15;;;;;;;10.07;70.14;98495.50;4390239;32;20161;-72
2024/01/07 08:00:22;;;;;;;11.73;9.88;;;;;;;10.01;70.24;98495.22;4390254;32;20180;-72
2024/01/07 08:02:57;;;;;;;10.30;8.18;;;;;;;10.00;70.21;98494.38;4390247;32;20185;-72
2024/01/07 08:05:26;;;;;;;10.40;8.32;;;;;;;10.04;70.32;98503.72;4390162;32;20149;-72
2024/01/07 08:07:59;;;;;;;12.55;9.25;;;;;;;9.82;70.62;98490.75;4390462;32;20445;-72
2024/01/07 08:10:35;;;;;;;16.90;11.12;;;;;;;9.88;70.67;98494.66;4390235;32;20510;-72
2024/01/07 08:13:06;;;;;;;13.77;12.32;;;;;;;9.83;70.73;98503.00;4390711;32;20433;-73
2024/01/07 08:15:37;;;;;;;12.03;8.87;;;;;;;9.72;71.41;98503.94;4390235;32;20152;-72
2024/01/07 08:18:07;;;;;;;10.20;9.18;;;;;;;10.08;70.17;98505.13;4390196;32;20237;-72
2024/01/07 08:20:36;;;;;;;13.18;10.25;;;;;;;9.92;70.81;98501.34;4389436;32;20442;-72
2024/01/07 08:23:05;;;;;;;11.45;9.90;;;;;;;9.87;70.93;98506.22;4390086;32;20169;-72
2024/01/07 08:25:35;;;;;;;10.18;8.80;;;;;;;9.77;71.24;98507.00;4390068;32;20536;-72
2024/01/07 08:30:41;;;;;;;10.90;9.75;;;;;;;9.91;70.86;98516.38;4389950;32;20162;-72
2024/01/07 08:33:11;;;;;;;10.05;8.70;;;;;;;9.99;70.75;98513.88;4390007;32;20160;-72
2024/01/07 08:35:40;;;;;;;11.32;8.68;;;;;;;9.81;71.10;98518.16;4389891;32;20165;-72
2024/01/07 08:38:09;;;;;;;11.43;9.65;;;;;;;9.91;71.14;98524.31;4389890;32;20160;-72
2024/01/07 08:40:38;;;;;;;10.52;9.43;;;;;;;10.03;70.70;98522.41;4390021;32;20205;-72
2024/01/07 08:43:08;;;;;;;9.05;8.10;;;;;;;10.16;70.27;98527.44;4390167;32;20141;-72
2024/01/07 08:45:38;;;;;;;11.88;7.28;;;;;;;10.08;70.53;98528.94;4389876;32;20575;-72
2024/01/07 08:48:08;;;;;;;8.15;7.30;;;;;;;10.05;70.56;98526.56;4389839;32;20165;-72
2024/01/07 08:50:37;;;;;;;8.65;7.47;;;;;;;9.88;71.23;98521.09;4389734;32;20150;-72
2024/01/07 08:53:06;;;;;;;11.12;7.25;;;;;;;9.98;71.03;98529.91;4388549;32;20181;-72
2024/01/07 08:55:35;;;;;;;9.13;7.57;;;;;;;9.98;71.01;98536.03;4389638;32;20157;-72
2024/01/07 08:58:06;;;;;;;7.87;7.07;;;;;;;10.06;70.63;98541.50;4390014;32;20161;-72
2024/01/07 09:00:36;;;;;;;8.27;7.20;;;;;;;9.77;71.72;98536.09;4389798;32;20173;-72
2024/01/07 09:03:06;;;;;;;10.88;8.05;;;;;;;9.86;71.36;98537.13;4389663;32;20154;-72
2024/01/07 09:05:36;;;;;;;8.35;7.25;;;;;;;10.01;70.97;98538.37;4389375;32;20161;-73
2024/01/07 09:08:06;;;;;;;10.23;7.43;;;;;;;10.13;70.54;98546.22;4389599;32;20628;-72
2024/01/07 09:10:35;;;;;;;9.23;7.30;;;;;;;10.09;70.76;98543.00;4389497;32;20157;-72
2024/01/07 09:13:04;;;;;;;10.63;8.73;;;;;;;9.81;71.75;98552.53;4389777;32;20150;-72
2024/01/07 09:15:33;;;;;;;10.32;8.32;;;;;;;9.78;72.00;98544.87;4389409;32;20165;-72
2024/01/07 09:18:04;;;;;;;13.10;8.57;;;;;;;9.82;71.73;98548.94;4389430;32;20149;-72
2024/01/07 09:20:34;;;;;;;8.02;6.90;;;;;;;9.72;72.07;98542.78;4389334;32;20197;-73
2024/01/07 09:23:10;;;;;;;9.05;7.55;;;;;;;9.73;72.20;98553.22;4389172;32;20557;-72
2024/01/07 09:25:39;;;;;;;9.60;7.78;;;;;;;9.88;71.67;98543.09;4389409;32;20161;-72
2024/01/07 09:28:08;;;;;;;8.32;7.10;;;;;;;9.26;73.36;98549.38;4389845;32;20407;-72
2024/01/07 09:30:37;;;;;;;10.18;7.72;;;;;;;9.33;71.71;98556.66;4389227;32;20162;-72
2024/01/07 09:33:12;;;;;;;6.68;5.50;;;;;;;9.15;71.75;98552.97;4390921;32;20157;-72
2024/01/07 09:35:41;;;;;;;8.55;6.05;;;;;;;9.11;71.20;98555.03;4391245;32;20185;-72
2024/01/07 09:38:10;;;;;;;7.28;6.07;;;;;;;9.24;70.46;98552.16;4391221;32;20157;-72
2024/01/07 09:40:41;;;;;;;6.55;5.87;;;;;;;9.36;69.78;98559.03;4391358;32;20138;-72
2024/01/07 09:43:11;;;;;;;9.02;6.12;;;;;;;9.19;70.20;98561.47;4391457;32;20177;-72
2024/01/07 09:45:47;;;;;;;7.53;5.70;;;;;;;8.92;70.71;98546.97;4391095;32;20173;-72
2024/01/07 09:48:18;;;;;;;7.35;5.75;;;;;;;8.84;70.92;98559.97;4391125;32;20176;-72
2024/01/07 09:50:48;;;;;;;7.47;5.50;;;;;;;8.79;71.21;98554.22;4391160;32;20178;-72
2024/01/07 09:53:27;;;;;;;12.93;6.25;;;;;;;8.97;70.26;98549.22;4391028;32;20173;-73
2024/01/07 09:56:08;;;;;;;6.43;5.25;;;;;;;8.91;70.10;98549.72;4391128;32;20161;-73
2024/01/07 09:58:43;;;;;;;6.95;6.07;;;;;;;8.54;70.99;98548.34;4391179;32;20184;-72
2024/01/07 10:01:18;;;;;;;6.50;5.45;;;;;;;8.00;72.22;98543.06;4391438;32;20172;-73
2024/01/07 10:03:49;;;;;;;7.10;5.75;;;;;;;8.25;71.69;98545.41;4377337;32;20149;-72
2024/01/07 10:06:19;;;;;;;7.30;5.82;;;;;;;8.42;71.08;98541.44;4376045;32;20478;-72
2024/01/07 10:08:49;;;;;;;5.82;4.43;;;;;;;7.89;72.81;98551.88;4375876;32;20157;-72
2024/01/07 10:11:18;;;;;;;9.68;6.18;;;;;;;7.99;72.49;98547.50;4375839;32;20526;-72
2024/01/07 10:13:48;;;;;;;10.75;4.90;;;;;;;8.01;71.91;98544.78;4375909;32;20150;-72
2024/01/07 10:16:17;;;;;;;5.50;4.90;;;;;;;7.79;72.45;98546.47;4374679;32;20439;-72
2024/01/07 10:18:47;;;;;;;6.12;5.45;;;;;;;7.87;72.58;98543.22;4375868;32;20160;-72
2024/01/07 10:21:17;;;;;;;6.57;5.75;;;;;;;7.81;72.83;98546.38;4375880;32;20196;-72
2024/01/07 10:23:47;;;;;;;5.28;4.28;;;;;;;7.49;73.64;98544.47;4375518;32;20174;-72
2024/01/07 10:26:16;;;;;;;8.07;5.60;;;;;;;7.59;73.36;98544.56;4375606;32;20166;-72
2024/01/07 10:28:58;;;;;;;6.97;4.97;;;;;;;7.76;73.35;98544.09;4375672;32;20173;-72
2024/01/07 10:31:29;;;;;;;6.47;5.12;;;;;;;7.41;73.90;98546.03;4376063;32;20161;-72
2024/01/07 10:34:03;;;;;;;6.07;4.78;;;;;;;7.55;73.69;98538.69;4375786;32;20204;-72
2024/01/07 10:36:33;;;;;;;6.35;5.37;;;;;;;7.45;74.05;98536.91;4375731;32;20170;-72
2024/01/07 10:39:09;;;;;;;6.80;5.60;;;;;;;7.67;72.90;98536.06;4375841;32;20185;-72
2024/01/07 10:41:39;;;;;;;7.20;5.12;;;;;;;7.50;73.35;98543.50;4375694;32;20461;-72
2024/01/07 10:44:08;;;;;;;6.25;5.20;;;;;;;7.60;72.67;98539.19;4375706;32;20153;-72
2024/01/07 10:46:39;;;;;;;6.40;5.80;;;;;;;7.60;73.05;98538.31;4376100;32;20149;-72
2024/01/07 10:49:19;;;;;;;10.50;6.35;;;;;;;7.59;73.11;98537.50;4376105;32;20150;-72
2024/01/07 10:52:05;;;;;;;7.07;5.57;;;;;;;7.56;73.02;98540.41;4375681;32;20511;-72
2024/01/07 10:54:35;;;;;;;6.40;5.47;;;;;;;7.49;73.27;98539.19;4375727;32;20177;-72
2024/01/07 10:57:14;;;;;;;6.57;5.95;;;;;;;7.64;72.18;98538.00;4375681;32;20161;-72
2024/01/07 10:59:46;;;;;;;6.95;6.05;;;;;;;7.26;73.19;98534.88;4375783;32;20162;-73
2024/01/07 11:02:16;;;;;;;8.73;6.75;;;;;;;7.17;73.88;98531.16;4375593;32;20173;-73
2024/01/07 11:04:56;;;;;;;9.52;6.47;;;;;;;7.32;73.47;98529.09;4375460;32;20174;-72
2024/01/07 11:07:37;;;;;;;6.60;5.50;;;;;;;7.31;73.86;98522.16;4376030;32;20146;-73
2024/01/07 11:10:13;;;;;;;7.78;6.28;;;;;;;7.43;73.39;98534.38;4390620;32;20157;-73
2024/01/07 11:12:42;;;;;;;6.90;5.93;;;;;;;7.45;73.15;98521.94;4390562;32;20181;-72
2024/01/07 11:15:55;;;;;;;9.70;7.18;;;;;;;7.49;72.90;98523.37;4390441;32;20161;-72
2024/01/07 11:18:29;;;;;;;7.53;6.28;;;;;;;7.31;73.50;98524.81;4390607;32;20146;-72
2024/01/07 11:21:01;;;;;;;7.55;6.47;;;;;;;7.43;73.14;98525.66;4390669;32;20195;-72
2024/01/07 11:23:39;;;;;;;6.97;5.50;;;;;;;7.09;73.94;98523.00;4390369;32;20189;-72
2024/01/07 11:26:10;;;;;;;13.98;10.40;;;;;;;7.31;73.46;98525.62;4390428;32;20543;-73
2024/01/07 11:28:51;;;;;;;36.63;25.67;;;;;;;6.92;75.07;98505.84;4390550;32;20145;-72
2024/01/07 11:31:22;;;;;;;6.75;5.55;;;;;;;7.74;76.96;98511.72;4390846;32;20149;-72
2024/01/07 11:33:52;;;;;;;5.45;4.80;;;;;;;7.68;73.23;98521.91;4390488;32;20528;-72
2024/01/07 11:36:21;;;;;;;5.32;4.70;;;;;;;7.49;71.69;98518.09;4390463;32;20153;-72
2024/01/07 11:38:54;;;;;;;5.72;5.00;;;;;;;7.63;71.34;98515.19;4390293;32;20173;-72
2024/01/07 11:41:27;;;;;;;6.68;5.12;;;;;;;7.10;72.60;98511.50;4390479;32;20454;-72
2024/01/07 11:43:58;;;;;;;6.15;5.55;;;;;;;7.02;73.52;98524.44;4390380;32;20537;-72
2024/01/07 11:46:35;;;;;;;5.47;4.97;;;;;;;7.06;73.12;98525.88;4390460;32;20184;-72
2024/01/07 11:49:04;;;;;;;5.30;4.80;;;;;;;7.31;72.49;98522.16;4390783;32;20196;-72
2024/01/07 11:51:41;;;;;;;6.28;5.28;;;;;;;7.00;73.09;98519.25;4390639;32;20422;-72
2024/01/07 11:54:13;;;;;;;7.53;6.25;;;;;;;7.01;73.75;98517.47;4389700;32;20185;-73